createdAt,value
2023-03-26T00:02:05.641Z,94.59
2023-03-26T00:04:34.713Z,93.53
2023-03-26T00:07:03.419Z,94.27
2023-03-26T00:09:31.544Z,93.28
2023-03-26T00:11:59.831Z,93.49
2023-03-26T00:14:29.311Z,92.14
2023-03-26T00:16:57.562Z,91.53
2023-03-26T00:19:25.777Z,91.22
2023-03-26T00:21:53.921Z,91.12
2023-03-26T00:24:29.537Z,91.21
2023-03-26T00:26:57.852Z,92.60
2023-03-26T00:29:28.224Z,92.95
2023-03-26T00:31:57.093Z,91.73
2023-03-26T00:34:26.821Z,90.56
2023-03-26T00:36:55.307Z,91.17
2023-03-26T00:39:24.282Z,90.56
2023-03-26T00:41:54.829Z,90.52
2023-03-26T00:44:23.283Z,91.58
2023-03-26T00:46:51.459Z,91.97
2023-03-26T00:49:19.636Z,91.33
2023-03-26T00:51:47.890Z,91.69
2023-03-26T00:54:16.144Z,92.81
2023-03-26T00:56:45.411Z,91.72
2023-03-26T00:59:13.775Z,94.02
2023-03-26T01:01:42.430Z,93.63
2023-03-26T01:04:24.360Z,93.53
2023-03-26T01:06:55.770Z,92.64
2023-03-26T01:09:33.114Z,92.07
2023-03-26T01:12:04.796Z,91.89
2023-03-26T01:14:33.173Z,92.11
2023-03-26T01:17:03.843Z,93.76
2023-03-26T01:19:56.593Z,94.69
2023-03-26T01:22:27.491Z,96.46
2023-03-26T01:24:59.020Z,94.37
2023-03-26T01:27:50.228Z,93.69
2023-03-26T01:30:27.897Z,93.65
2023-03-26T01:33:30.149Z,96.14
2023-03-26T01:36:06.283Z,95.76
2023-03-26T01:38:52.177Z,96.47
2023-03-26T01:41:36.902Z,95.69
2023-03-26T01:44:34.497Z,96.72
2023-03-26T01:47:05.004Z,95.10
2023-03-26T01:49:33.297Z,96.62
2023-03-26T01:52:02.419Z,97.82
2023-03-26T01:54:32.072Z,97.41
2023-03-26T01:57:15.979Z,96.25
2023-03-26T02:00:11.481Z,95.44
2023-03-26T02:03:06.102Z,95.93
2023-03-26T02:05:42.658Z,96.47
2023-03-26T02:08:23.587Z,94.84
2023-03-26T02:11:02.139Z,95.53
2023-03-26T02:13:31.097Z,94.79
2023-03-26T02:16:03.531Z,95.69
2023-03-26T02:18:39.087Z,96.28
2023-03-26T02:21:14.417Z,95.99
2023-03-26T02:23:47.075Z,94.55
2023-03-26T02:26:17.622Z,95.55
2023-03-26T02:29:08.958Z,96.31
2023-03-26T02:31:38.172Z,94.91
2023-03-26T02:34:06.652Z,95.74
2023-03-26T02:36:36.968Z,94.42
2023-03-26T02:39:06.051Z,94.57
2023-03-26T02:41:38.365Z,94.40
2023-03-26T02:44:11.175Z,95.34
2023-03-26T02:47:08.453Z,94.00
2023-03-26T02:49:43.334Z,94.36
2023-03-26T02:52:17.239Z,94.27
2023-03-26T02:54:45.753Z,93.26
2023-03-26T02:57:25.569Z,92.56
2023-03-26T02:59:59.480Z,92.25
2023-03-26T03:02:40.175Z,92.03
2023-03-26T03:05:27.221Z,91.85
2023-03-26T03:08:19.658Z,92.15
2023-03-26T03:11:11.562Z,92.53
2023-03-26T03:13:44.780Z,92.04
2023-03-26T03:16:14.449Z,91.26
2023-03-26T03:18:42.634Z,91.42
2023-03-26T03:21:10.983Z,91.38
2023-03-26T03:23:39.267Z,91.32
2023-03-26T03:26:15.789Z,91.63
2023-03-26T03:28:46.965Z,91.85
2023-03-26T03:31:17.891Z,91.87
2023-03-26T03:33:46.715Z,92.50
2023-03-26T03:36:22.166Z,91.57
2023-03-26T03:39:02.745Z,91.72
2023-03-26T03:41:31.345Z,91.51
2023-03-26T03:44:01.779Z,91.80
2023-03-26T03:46:32.209Z,91.89
2023-03-26T03:49:00.613Z,91.65
2023-03-26T03:51:33.198Z,92.53
2023-03-26T03:54:03.860Z,92.21
2023-03-26T03:56:49.042Z,91.89
2023-03-26T03:59:29.123Z,92.80
2023-03-26T04:01:58.265Z,94.69
2023-03-26T04:04:42.284Z,93.38
2023-03-26T04:07:13.250Z,93.03
2023-03-26T04:10:02.978Z,92.14
2023-03-26T04:12:42.035Z,91.58
2023-03-26T04:15:14.925Z,91.81
2023-03-26T04:17:45.529Z,92.45
2023-03-26T04:20:16.135Z,91.92
2023-03-26T04:22:46.050Z,91.61
2023-03-26T04:25:15.790Z,91.52
2023-03-26T04:28:08.684Z,91.22
2023-03-26T04:31:03.855Z,91.47
2023-03-26T04:33:39.895Z,91.88
2023-03-26T04:36:09.659Z,91.98
2023-03-26T04:38:42.315Z,90.91
2023-03-26T04:41:15.463Z,90.64
2023-03-26T04:43:50.889Z,90.37
2023-03-26T04:46:37.742Z,89.15
2023-03-26T04:49:11.891Z,89.41
2023-03-26T04:51:46.741Z,89.96
2023-03-26T04:54:33.279Z,90.20
2023-03-26T04:57:20.623Z,89.76
2023-03-26T04:59:56.461Z,89.34
2023-03-26T05:02:26.257Z,89.31
2023-03-26T05:04:57.402Z,88.90
2023-03-26T05:07:28.628Z,88.93
2023-03-26T05:09:58.234Z,89.52
2023-03-26T05:12:49.841Z,89.41
2023-03-26T05:15:30.708Z,90.26
2023-03-26T05:17:58.926Z,90.55
2023-03-26T05:20:31.555Z,89.06
2023-03-26T05:23:00.044Z,89.12
2023-03-26T05:25:35.030Z,89.66
2023-03-26T05:28:04.630Z,88.57
2023-03-26T05:30:55.982Z,89.25
2023-03-26T05:33:26.380Z,89.26
2023-03-26T05:36:07.222Z,89.71
2023-03-26T05:38:35.915Z,89.95
2023-03-26T05:41:08.534Z,89.53
2023-03-26T05:43:38.025Z,88.97
2023-03-26T05:46:16.027Z,88.01
2023-03-26T05:48:44.518Z,87.69
2023-03-26T05:51:12.790Z,87.78
2023-03-26T05:53:44.166Z,87.70
2023-03-26T05:56:50.401Z,87.71
2023-03-26T05:59:37.688Z,86.67
2023-03-26T06:02:24.952Z,86.59
2023-03-26T06:05:16.077Z,86.67
2023-03-26T06:07:58.180Z,86.47
2023-03-26T06:10:32.762Z,85.14
2023-03-26T06:13:01.108Z,84.82
2023-03-26T06:15:29.449Z,85.38
2023-03-26T06:18:02.528Z,86.03
2023-03-26T06:20:49.596Z,86.39
2023-03-26T06:23:26.004Z,86.53
2023-03-26T06:26:17.371Z,86.03
2023-03-26T06:28:45.603Z,82.82
2023-03-26T06:31:32.469Z,84.17
2023-03-26T06:34:19.756Z,84.70
2023-03-26T06:36:49.024Z,84.05
2023-03-26T06:39:17.364Z,83.90
2023-03-26T06:41:53.686Z,84.67
2023-03-26T06:44:40.432Z,84.50
2023-03-26T06:47:27.614Z,83.37
2023-03-26T06:50:28.510Z,82.45
2023-03-26T06:52:56.848Z,83.69
2023-03-26T06:55:45.578Z,82.65
2023-03-26T06:58:32.123Z,83.23
2023-03-26T07:01:19.009Z,82.54
2023-03-26T07:04:05.968Z,81.81
2023-03-26T07:06:53.320Z,82.17
2023-03-26T07:09:40.167Z,81.26
2023-03-26T07:12:31.539Z,75.78
2023-03-26T07:15:20.135Z,71.89
2023-03-26T07:18:04.803Z,76.31
2023-03-26T07:20:36.173Z,74.31
2023-03-26T07:23:04.974Z,70.71
2023-03-26T07:25:54.489Z,72.53
2023-03-26T07:29:04.919Z,72.48
2023-03-26T07:32:03.080Z,69.06
2023-03-26T07:35:06.111Z,64.40
2023-03-26T07:38:21.200Z,64.48
2023-03-26T07:41:30.373Z,62.12
2023-03-26T07:45:03.443Z,63.27
2023-03-26T07:47:45.385Z,59.29
2023-03-26T07:50:23.823Z,64.05
2023-03-26T07:53:30.450Z,63.32
2023-03-26T07:56:38.101Z,62.46
2023-03-26T07:59:37.502Z,61.19
2023-03-26T08:02:50.664Z,61.19
2023-03-26T08:06:26.392Z,61.54
2023-03-26T08:09:23.827Z,62.30
2023-03-26T08:12:40.906Z,62.24
2023-03-26T08:15:18.249Z,54.96
2023-03-26T08:17:59.822Z,55.77
2023-03-26T08:20:31.131Z,52.88
2023-03-26T08:23:09.478Z,53.77
2023-03-26T08:25:54.186Z,56.90
2023-03-26T08:28:39.326Z,57.77
2023-03-26T08:31:11.316Z,58.33
2023-03-26T08:33:41.357Z,60.15
2023-03-26T08:36:10.285Z,60.01
2023-03-26T08:38:38.448Z,59.55
2023-03-26T08:41:12.557Z,61.77
2023-03-26T08:44:13.858Z,59.39
2023-03-26T08:46:57.424Z,60.20
2023-03-26T08:49:58.559Z,56.51
2023-03-26T08:52:54.804Z,54.23
2023-03-26T08:55:38.384Z,54.74
2023-03-26T08:58:22.020Z,56.51
2023-03-26T09:01:32.183Z,55.04
2023-03-26T09:04:31.563Z,54.87
2023-03-26T09:07:18.240Z,56.05
2023-03-26T09:10:24.664Z,54.62
2023-03-26T09:12:58.801Z,54.92
2023-03-26T09:16:06.576Z,53.57
2023-03-26T09:18:53.779Z,53.62
2023-03-26T09:21:59.892Z,54.54
2023-03-26T09:24:34.104Z,51.49
2023-03-26T09:27:37.010Z,49.85
2023-03-26T09:30:39.755Z,47.15
2023-03-26T09:33:20.070Z,49.07
2023-03-26T09:35:52.257Z,49.90
2023-03-26T09:38:20.539Z,45.95
2023-03-26T09:41:16.517Z,45.78
2023-03-26T09:44:02.787Z,44.53
2023-03-26T09:46:36.842Z,42.92
2023-03-26T09:49:32.313Z,43.99
2023-03-26T09:52:05.931Z,45.34
2023-03-26T09:54:48.577Z,45.81
2023-03-26T09:57:27.181Z,46.61
2023-03-26T10:00:15.977Z,44.87
2023-03-26T10:03:06.379Z,44.57
2023-03-26T10:05:53.504Z,45.74
2023-03-26T10:08:56.627Z,46.20
2023-03-26T10:11:43.208Z,46.22
2023-03-26T10:14:26.189Z,44.07
2023-03-26T10:16:57.148Z,44.63
2023-03-26T10:20:09.720Z,40.44
2023-03-26T10:22:59.275Z,40.88
2023-03-26T10:26:05.276Z,42.01
2023-03-26T10:29:12.094Z,41.30
2023-03-26T10:31:43.970Z,40.06
2023-03-26T10:34:28.919Z,40.14
2023-03-26T10:37:07.809Z,41.61
2023-03-26T10:39:39.793Z,41.28
2023-03-26T10:42:16.316Z,42.57
2023-03-26T10:45:12.872Z,42.91
2023-03-26T10:48:08.132Z,41.69
2023-03-26T10:51:08.435Z,41.91
2023-03-26T10:53:39.595Z,41.90
2023-03-26T10:56:18.641Z,41.39
2023-03-26T10:58:49.547Z,40.97
2023-03-26T11:01:32.864Z,41.70
2023-03-26T11:04:34.951Z,42.26
2023-03-26T11:07:25.365Z,41.77
2023-03-26T11:10:05.819Z,42.83
2023-03-26T11:12:52.942Z,42.81
2023-03-26T11:15:43.594Z,43.56
2023-03-26T11:18:32.929Z,44.22
2023-03-26T11:21:28.488Z,44.73
2023-03-26T11:24:06.742Z,45.74
2023-03-26T11:26:55.857Z,46.35
2023-03-26T11:29:46.254Z,46.72
2023-03-26T11:32:21.277Z,48.36
2023-03-26T11:34:58.423Z,46.18
2023-03-26T11:37:42.156Z,45.58
2023-03-26T11:40:34.720Z,46.28
2023-03-26T11:43:07.564Z,47.53
2023-03-26T11:45:38.215Z,47.29
2023-03-26T11:48:32.572Z,46.45
2023-03-26T11:51:06.214Z,46.88
2023-03-26T11:53:40.604Z,46.71
2023-03-26T11:56:15.467Z,45.00
2023-03-26T11:58:48.374Z,46.76
2023-03-26T12:01:22.891Z,46.08
2023-03-26T12:04:13.524Z,46.31
2023-03-26T12:06:59.912Z,46.44
2023-03-26T12:09:28.151Z,46.59
2023-03-26T12:12:01.838Z,46.07
2023-03-26T12:14:34.110Z,46.44
2023-03-26T12:17:14.492Z,46.44
2023-03-26T12:19:45.521Z,46.64
2023-03-26T12:22:47.966Z,46.52
2023-03-26T12:25:25.279Z,45.94
2023-03-26T12:28:19.949Z,45.85
2023-03-26T12:30:59.077Z,46.56
2023-03-26T12:33:30.417Z,45.75
2023-03-26T12:36:00.756Z,46.01
2023-03-26T12:38:33.409Z,44.56
2023-03-26T12:42:36.641Z,44.48
2023-03-26T12:44:46.701Z,45.17
2023-03-26T12:47:57.319Z,44.61
2023-03-26T12:51:28.891Z,45.14
2023-03-26T12:54:15.328Z,45.49
2023-03-26T12:57:21.042Z,45.23
2023-03-26T12:59:58.180Z,46.07
2023-03-26T13:02:41.437Z,45.81
2023-03-26T13:05:30.072Z,46.32
2023-03-26T13:08:16.943Z,47.51
2023-03-26T13:11:11.610Z,46.75
2023-03-26T13:13:48.887Z,47.17
2023-03-26T13:16:36.824Z,45.74
2023-03-26T13:19:27.406Z,46.42
2023-03-26T13:22:27.170Z,46.45
2023-03-26T13:25:11.111Z,44.08
2023-03-26T13:27:39.216Z,43.87
2023-03-26T13:30:27.706Z,43.92
2023-03-26T13:33:07.959Z,44.13
2023-03-26T13:36:14.439Z,43.91
2023-03-26T13:38:59.312Z,44.76
2023-03-26T13:41:47.579Z,45.41
2023-03-26T13:44:32.485Z,45.88
2023-03-26T13:47:07.440Z,45.97
2023-03-26T13:49:48.509Z,47.04
2023-03-26T13:52:22.688Z,46.69
2023-03-26T13:55:19.130Z,46.35
2023-03-26T13:57:57.011Z,45.01
2023-03-26T14:00:57.557Z,44.27
2023-03-26T14:03:29.900Z,45.58
2023-03-26T14:06:03.843Z,45.58
2023-03-26T14:08:51.714Z,46.38
2023-03-26T14:11:31.956Z,46.39
2023-03-26T14:14:29.078Z,46.69
2023-03-26T14:17:04.537Z,47.61
2023-03-26T14:19:53.880Z,47.04
2023-03-26T14:22:44.072Z,47.27
2023-03-26T14:25:37.725Z,46.96
2023-03-26T14:28:21.318Z,46.89
2023-03-26T14:31:04.182Z,46.74
2023-03-26T14:33:47.766Z,46.90
2023-03-26T14:36:49.954Z,47.37
2023-03-26T14:39:27.711Z,47.58
2023-03-26T14:42:05.895Z,47.24
2023-03-26T14:44:47.809Z,47.71
2023-03-26T14:47:21.877Z,46.91
2023-03-26T14:50:36.255Z,47.26
2023-03-26T14:53:16.316Z,45.95
2023-03-26T14:56:22.949Z,46.78
2023-03-26T14:58:53.929Z,46.42
2023-03-26T15:01:26.786Z,46.57
2023-03-26T15:04:17.012Z,46.29
2023-03-26T15:07:04.185Z,46.21
2023-03-26T15:10:09.646Z,46.75
2023-03-26T15:13:16.358Z,46.24
2023-03-26T15:16:03.648Z,45.67
2023-03-26T15:19:00.170Z,46.11
2023-03-26T15:22:18.485Z,45.88
2023-03-26T15:25:21.990Z,46.61
2023-03-26T15:28:09.359Z,47.08
2023-03-26T15:31:26.437Z,47.28
2023-03-26T15:34:20.204Z,47.55
2023-03-26T15:37:22.511Z,47.43
2023-03-26T15:40:19.325Z,47.43
2023-03-26T15:43:08.809Z,47.85
2023-03-26T15:45:42.205Z,47.47
2023-03-26T15:48:13.227Z,47.54
2023-03-26T15:51:03.618Z,47.68
2023-03-26T15:53:35.041Z,48.42
2023-03-26T15:56:40.459Z,48.36
2023-03-26T15:59:41.941Z,48.74
2023-03-26T16:02:55.233Z,48.92
2023-03-26T16:05:56.354Z,49.35
2023-03-26T16:08:53.337Z,50.36
2023-03-26T16:11:45.254Z,49.66
2023-03-26T16:14:34.554Z,50.03
2023-03-26T16:17:08.090Z,50.37
2023-03-26T16:19:50.512Z,50.32
2023-03-26T16:22:53.453Z,50.74
2023-03-26T16:25:34.859Z,50.76
2023-03-26T16:28:09.241Z,50.89
2023-03-26T16:30:38.492Z,51.35
2023-03-26T16:33:15.785Z,51.46
2023-03-26T16:36:06.606Z,52.05
2023-03-26T16:39:04.888Z,51.88
2023-03-26T16:41:34.335Z,52.33
2023-03-26T16:44:16.831Z,52.87
2023-03-26T16:47:00.295Z,52.60
2023-03-26T16:49:46.902Z,52.27
2023-03-26T16:52:42.919Z,54.89
2023-03-26T16:55:23.081Z,55.68
2023-03-26T16:58:11.359Z,56.87
2023-03-26T17:01:00.421Z,57.42
2023-03-26T17:03:45.043Z,57.85
2023-03-26T17:06:20.971Z,56.66
2023-03-26T17:09:01.418Z,58.15
2023-03-26T17:12:01.902Z,58.87
2023-03-26T17:14:51.376Z,57.61
2023-03-26T17:17:25.364Z,56.70
2023-03-26T17:20:11.832Z,57.35
2023-03-26T17:23:02.662Z,57.51
2023-03-26T17:25:54.062Z,57.23
2023-03-26T17:29:00.472Z,57.89
2023-03-26T17:31:51.203Z,57.34
2023-03-26T17:34:40.116Z,57.67
2023-03-26T17:37:31.435Z,57.87
2023-03-26T17:40:08.788Z,58.84
2023-03-26T17:42:37.753Z,58.58
2023-03-26T17:45:17.725Z,58.44
2023-03-26T17:47:53.088Z,60.19
2023-03-26T17:50:26.668Z,59.09
2023-03-26T17:52:58.381Z,59.75
2023-03-26T17:55:33.226Z,60.29
2023-03-26T17:58:04.278Z,60.25
2023-03-26T18:00:42.504Z,62.36
2023-03-26T18:03:23.885Z,65.33
2023-03-26T18:05:57.621Z,63.35
2023-03-26T18:08:58.661Z,63.81
2023-03-26T18:11:26.799Z,65.21
2023-03-26T18:14:06.930Z,66.38
2023-03-26T18:16:47.638Z,66.35
2023-03-26T18:19:22.705Z,66.36
2023-03-26T18:21:53.824Z,64.89
2023-03-26T18:24:46.500Z,65.74
2023-03-26T18:27:19.210Z,67.61
2023-03-26T18:30:26.411Z,67.51
2023-03-26T18:33:12.757Z,67.45
2023-03-26T18:35:49.921Z,68.53
2023-03-26T18:38:35.943Z,66.71
2023-03-26T18:41:11.263Z,67.72
2023-03-26T18:43:44.200Z,68.01
2023-03-26T18:46:14.726Z,71.68
2023-03-26T18:48:44.322Z,68.79
2023-03-26T18:51:22.543Z,67.52
2023-03-26T18:53:55.486Z,68.98
2023-03-26T18:56:35.449Z,69.82
2023-03-26T18:59:12.195Z,69.85
2023-03-26T19:01:47.237Z,71.04
2023-03-26T19:04:16.435Z,69.82
2023-03-26T19:06:46.333Z,69.40
2023-03-26T19:09:30.288Z,70.97
2023-03-26T19:12:09.593Z,71.19
2023-03-26T19:14:58.125Z,71.90
2023-03-26T19:17:31.615Z,74.77
2023-03-26T19:20:00.774Z,73.84
2023-03-26T19:22:30.641Z,73.38
2023-03-26T19:25:02.835Z,71.37
2023-03-26T19:27:31.415Z,71.21
2023-03-26T19:29:59.810Z,71.13
2023-03-26T19:32:34.781Z,71.93
2023-03-26T19:35:04.716Z,72.30
2023-03-26T19:37:33.320Z,74.87
2023-03-26T19:40:14.226Z,76.28
2023-03-26T19:42:44.773Z,73.27
2023-03-26T19:45:20.515Z,71.35
2023-03-26T19:48:00.133Z,71.51
2023-03-26T19:50:35.481Z,71.38
2023-03-26T19:53:19.233Z,73.39
2023-03-26T19:55:59.572Z,71.60
2023-03-26T19:58:27.849Z,71.75
2023-03-26T20:00:56.712Z,72.74
2023-03-26T20:03:36.948Z,75.23
2023-03-26T20:06:05.958Z,75.36
2023-03-26T20:08:34.199Z,76.55
2023-03-26T20:11:02.472Z,75.08
2023-03-26T20:13:31.299Z,75.13
2023-03-26T20:16:29.904Z,75.15
2023-03-26T20:19:02.490Z,74.03
2023-03-26T20:21:34.786Z,74.39
2023-03-26T20:24:11.019Z,76.48
2023-03-26T20:26:39.333Z,77.06
2023-03-26T20:29:07.944Z,77.76
2023-03-26T20:31:36.361Z,78.29
2023-03-26T20:34:10.276Z,78.99
2023-03-26T20:36:39.566Z,77.11
2023-03-26T20:39:08.329Z,76.62
2023-03-26T20:41:46.096Z,76.79
2023-03-26T20:44:18.137Z,75.75
2023-03-26T20:46:48.380Z,74.49
2023-03-26T20:49:18.144Z,73.71
2023-03-26T20:51:47.005Z,73.20
2023-03-26T20:54:21.392Z,72.55
2023-03-26T20:56:50.402Z,72.40
2023-03-26T20:59:26.690Z,73.79
2023-03-26T21:01:57.762Z,74.15
2023-03-26T21:04:26.927Z,73.62
2023-03-26T21:07:06.594Z,74.72
2023-03-26T21:09:39.938Z,75.01
2023-03-26T21:12:16.864Z,73.18
2023-03-26T21:14:45.283Z,72.81
2023-03-26T21:17:19.141Z,72.92
2023-03-26T21:19:48.242Z,74.14
2023-03-26T21:22:38.609Z,74.10
2023-03-26T21:25:35.938Z,74.64
2023-03-26T21:28:26.172Z,75.58
2023-03-26T21:30:59.409Z,76.20
2023-03-26T21:33:28.599Z,76.62
2023-03-26T21:36:00.004Z,77.02
2023-03-26T21:38:32.555Z,76.13
2023-03-26T21:41:01.711Z,75.68
2023-03-26T21:43:30.664Z,76.43
2023-03-26T21:45:59.342Z,76.49
2023-03-26T21:48:29.127Z,75.67
2023-03-26T21:51:02.549Z,73.72
2023-03-26T21:53:31.971Z,76.36
2023-03-26T21:56:21.777Z,76.51
2023-03-26T21:59:36.871Z,79.06
2023-03-26T22:02:17.992Z,78.05
2023-03-26T22:04:52.200Z,77.82
2023-03-26T22:07:39.299Z,77.72
2023-03-26T22:10:08.200Z,78.69
2023-03-26T22:12:36.680Z,78.48
2023-03-26T22:15:05.403Z,77.20
2023-03-26T22:17:33.728Z,78.07
2023-03-26T22:20:01.917Z,78.43
2023-03-26T22:22:30.165Z,78.17
2023-03-26T22:24:58.471Z,76.75
2023-03-26T22:27:27.373Z,75.08
2023-03-26T22:29:55.519Z,76.38
2023-03-26T22:32:23.659Z,77.65
2023-03-26T22:34:53.225Z,78.41
2023-03-26T22:37:23.537Z,77.69
2023-03-26T22:39:52.036Z,78.47
2023-03-26T22:42:20.798Z,78.10
2023-03-26T22:44:49.061Z,77.81
2023-03-26T22:47:17.569Z,77.37
2023-03-26T22:49:46.002Z,76.95
2023-03-26T22:52:14.171Z,77.67
2023-03-26T22:54:42.389Z,77.41
2023-03-26T22:57:11.256Z,76.93
2023-03-26T22:59:39.434Z,76.81
2023-03-26T23:02:09.994Z,77.43
2023-03-26T23:04:38.859Z,77.71
2023-03-26T23:07:07.133Z,78.04
2023-03-26T23:09:36.774Z,77.75
2023-03-26T23:12:05.287Z,78.79
2023-03-26T23:14:33.485Z,81.04
2023-03-26T23:17:01.736Z,83.44
2023-03-26T23:19:30.304Z,80.45
2023-03-26T23:21:58.527Z,80.56
2023-03-26T23:24:26.786Z,80.79
2023-03-26T23:26:54.944Z,81.81
2023-03-26T23:29:23.220Z,79.97
2023-03-26T23:31:53.075Z,79.48
2023-03-26T23:34:21.605Z,79.94
2023-03-26T23:36:50.078Z,81.42
2023-03-26T23:39:19.459Z,81.88
2023-03-26T23:41:48.234Z,79.55
2023-03-26T23:44:17.264Z,78.88
2023-03-26T23:46:45.530Z,79.36
2023-03-26T23:49:13.789Z,80.56
2023-03-26T23:51:42.386Z,80.52
2023-03-26T23:54:11.735Z,80.49
2023-03-26T23:56:39.930Z,81.29
2023-03-26T23:59:08.576Z,81.61
